sensor_id;sensor_type;location;lat;lon;timestamp;temperature;humidity
15184;DHT22;7693;49.266;7.104;2023-06-10T05:17:34;18.90;90.20
15184;DHT22;7693;49.266;7.104;2023-06-10T05:20:03;19.00;91.00
15184;DHT22;7693;49.266;7.104;2023-06-10T05:22:29;19.10;91.40
15184;DHT22;7693;49.266;7.104;2023-06-10T05:24:54;19.20;91.70
15184;DHT22;7693;49.266;7.104;2023-06-10T05:27:20;19.20;91.70
15184;DHT22;7693;49.266;7.104;2023-06-10T05:29:46;19.30;91.80
15184;DHT22;7693;49.266;7.104;2023-06-10T05:32:12;19.40;91.90
15184;DHT22;7693;49.266;7.104;2023-06-10T05:34:37;19.50;91.90
15184;DHT22;7693;49.266;7.104;2023-06-10T05:37:04;19.50;91.90
15184;DHT22;7693;49.266;7.104;2023-06-10T05:39:30;19.60;92.00
15184;DHT22;7693;49.266;7.104;2023-06-10T05:41:56;19.70;92.00
15184;DHT22;7693;49.266;7.104;2023-06-10T05:44:24;19.70;92.20
15184;DHT22;7693;49.266;7.104;2023-06-10T05:46:50;19.80;92.10
15184;DHT22;7693;49.266;7.104;2023-06-10T05:49:16;19.90;92.20
15184;DHT22;7693;49.266;7.104;2023-06-10T05:51:41;20.00;92.50
15184;DHT22;7693;49.266;7.104;2023-06-10T05:54:07;20.10;92.30
15184;DHT22;7693;49.266;7.104;2023-06-10T05:56:33;20.10;92.30
15184;DHT22;7693;49.266;7.104;2023-06-10T05:58:59;20.20;92.50
15184;DHT22;7693;49.266;7.104;2023-06-10T06:01:24;20.30;92.50
15184;DHT22;7693;49.266;7.104;2023-06-10T06:03:50;20.40;92.40
15184;DHT22;7693;49.266;7.104;2023-06-10T06:06:15;20.50;92.30
15184;DHT22;7693;49.266;7.104;2023-06-10T06:08:41;20.50;92.10
15184;DHT22;7693;49.266;7.104;2023-06-10T06:11:07;20.50;92.20
15184;DHT22;7693;49.266;7.104;2023-06-10T06:13:32;20.50;92.30
15184;DHT22;7693;49.266;7.104;2023-06-10T06:15:58;20.60;92.40
15184;DHT22;7693;49.266;7.104;2023-06-10T06:18:24;20.60;92.30
15184;DHT22;7693;49.266;7.104;2023-06-10T06:20:50;20.70;92.60
15184;DHT22;7693;49.266;7.104;2023-06-10T06:23:15;20.80;92.30
15184;DHT22;7693;49.266;7.104;2023-06-10T06:25:41;20.80;92.50
15184;DHT22;7693;49.266;7.104;2023-06-10T06:28:07;20.90;92.40
15184;DHT22;7693;49.266;7.104;2023-06-10T06:30:34;20.90;92.50
15184;DHT22;7693;49.266;7.104;2023-06-10T06:33:00;21.00;92.50
15184;DHT22;7693;49.266;7.104;2023-06-10T06:35:26;21.10;92.60
15184;DHT22;7693;49.266;7.104;2023-06-10T06:37:51;21.20;92.50
15184;DHT22;7693;49.266;7.104;2023-06-10T06:40:17;21.30;92.40
15184;DHT22;7693;49.266;7.104;2023-06-10T06:42:42;21.30;92.20
15184;DHT22;7693;49.266;7.104;2023-06-10T06:45:08;21.40;92.30
15184;DHT22;7693;49.266;7.104;2023-06-10T06:47:34;21.40;92.40
15184;DHT22;7693;49.266;7.104;2023-06-10T06:49:59;21.50;92.40
15184;DHT22;7693;49.266;7.104;2023-06-10T06:52:25;21.60;92.30
15184;DHT22;7693;49.266;7.104;2023-06-10T06:54:51;21.60;92.30
15184;DHT22;7693;49.266;7.104;2023-06-10T06:57:16;21.70;92.40
15184;DHT22;7693;49.266;7.104;2023-06-10T06:59:42;21.80;92.40
15184;DHT22;7693;49.266;7.104;2023-06-10T07:02:07;21.90;92.40
15184;DHT22;7693;49.266;7.104;2023-06-10T07:04:33;22.00;92.30
15184;DHT22;7693;49.266;7.104;2023-06-10T07:06:58;22.10;92.20
15184;DHT22;7693;49.266;7.104;2023-06-10T07:09:24;22.10;92.40
15184;DHT22;7693;49.266;7.104;2023-06-10T07:11:50;22.30;92.40
15184;DHT22;7693;49.266;7.104;2023-06-10T07:14:15;22.40;92.40
15184;DHT22;7693;49.266;7.104;2023-06-10T07:16:41;22.50;92.00
15184;DHT22;7693;49.266;7.104;2023-06-10T07:19:07;22.50;91.90
15184;DHT22;7693;49.266;7.104;2023-06-10T07:21:33;22.60;91.90
15184;DHT22;7693;49.266;7.104;2023-06-10T07:23:59;22.60;91.80
15184;DHT22;7693;49.266;7.104;2023-06-10T07:26:25;22.70;91.70
15184;DHT22;7693;49.266;7.104;2023-06-10T07:28:51;22.80;92.00
15184;DHT22;7693;49.266;7.104;2023-06-10T07:31:16;22.90;91.80
15184;DHT22;7693;49.266;7.104;2023-06-10T07:33:42;23.00;92.00
15184;DHT22;7693;49.266;7.104;2023-06-10T07:36:09;23.00;91.60
15184;DHT22;7693;49.266;7.104;2023-06-10T07:38:34;23.10;91.50
15184;DHT22;7693;49.266;7.104;2023-06-10T07:41:01;23.10;91.60
15184;DHT22;7693;49.266;7.104;2023-06-10T07:43:26;23.20;91.60
15184;DHT22;7693;49.266;7.104;2023-06-10T07:45:52;23.30;91.50
15184;DHT22;7693;49.266;7.104;2023-06-10T07:48:18;23.30;91.40
15184;DHT22;7693;49.266;7.104;2023-06-10T07:50:43;23.40;91.60
15184;DHT22;7693;49.266;7.104;2023-06-10T07:53:09;23.50;91.30
15184;DHT22;7693;49.266;7.104;2023-06-10T07:55:35;23.60;91.20
15184;DHT22;7693;49.266;7.104;2023-06-10T07:58:01;23.60;91.00
15184;DHT22;7693;49.266;7.104;2023-06-10T08:00:26;23.70;91.10
15184;DHT22;7693;49.266;7.104;2023-06-10T08:02:52;23.70;91.00
15184;DHT22;7693;49.266;7.104;2023-06-10T08:05:17;23.90;91.00
15184;DHT22;7693;49.266;7.104;2023-06-10T08:07:44;23.80;90.50
15184;DHT22;7693;49.266;7.104;2023-06-10T08:10:10;23.90;90.70
15184;DHT22;7693;49.266;7.104;2023-06-10T08:12:35;24.00;90.80
15184;DHT22;7693;49.266;7.104;2023-06-10T08:15:02;24.10;91.10
15184;DHT22;7693;49.266;7.104;2023-06-10T08:17:30;24.20;91.00
15184;DHT22;7693;49.266;7.104;2023-06-10T08:19:55;24.30;90.60
15184;DHT22;7693;49.266;7.104;2023-06-10T08:22:21;24.40;90.40
15184;DHT22;7693;49.266;7.104;2023-06-10T08:24:47;24.40;90.10
15184;DHT22;7693;49.266;7.104;2023-06-10T08:27:12;24.40;90.40
15184;DHT22;7693;49.266;7.104;2023-06-10T08:29:39;24.50;90.50
15184;DHT22;7693;49.266;7.104;2023-06-10T08:32:06;24.60;90.40
15184;DHT22;7693;49.266;7.104;2023-06-10T08:34:34;24.60;90.20
15184;DHT22;7693;49.266;7.104;2023-06-10T08:37:03;24.70;89.80
15184;DHT22;7693;49.266;7.104;2023-06-10T08:39:29;24.70;90.10
15184;DHT22;7693;49.266;7.104;2023-06-10T08:43:04;24.80;89.80
15184;DHT22;7693;49.266;7.104;2023-06-10T08:45:02;24.90;90.00
15184;DHT22;7693;49.266;7.104;2023-06-10T08:47:30;25.00;89.30
15184;DHT22;7693;49.266;7.104;2023-06-10T08:50:02;25.00;89.80
15184;DHT22;7693;49.266;7.104;2023-06-10T08:52:34;25.10;89.70
15184;DHT22;7693;49.266;7.104;2023-06-10T08:55:18;25.20;89.50
15184;DHT22;7693;49.266;7.104;2023-06-10T08:57:48;25.30;89.60
15184;DHT22;7693;49.266;7.104;2023-06-10T09:00:15;25.40;89.30
15184;DHT22;7693;49.266;7.104;2023-06-10T09:02:42;25.50;89.80
15184;DHT22;7693;49.266;7.104;2023-06-10T09:05:09;25.60;89.60
15184;DHT22;7693;49.266;7.104;2023-06-10T09:07:35;25.80;89.30
15184;DHT22;7693;49.266;7.104;2023-06-10T09:10:04;25.80;89.10
15184;DHT22;7693;49.266;7.104;2023-06-10T09:12:32;26.00;88.70
15184;DHT22;7693;49.266;7.104;2023-06-10T09:14:59;26.00;87.90
15184;DHT22;7693;49.266;7.104;2023-06-10T09:17:24;25.90;87.50
15184;DHT22;7693;49.266;7.104;2023-06-10T09:19:52;26.00;88.10
15184;DHT22;7693;49.266;7.104;2023-06-10T09:22:19;26.00;87.50
15184;DHT22;7693;49.266;7.104;2023-06-10T09:24:46;25.90;86.60
15184;DHT22;7693;49.266;7.104;2023-06-10T09:27:12;25.90;86.50
15184;DHT22;7693;49.266;7.104;2023-06-10T09:29:55;25.80;86.30
15184;DHT22;7693;49.266;7.104;2023-06-10T09:32:23;25.80;86.80
15184;DHT22;7693;49.266;7.104;2023-06-10T09:34:49;26.00;87.90
15184;DHT22;7693;49.266;7.104;2023-06-10T09:37:23;26.10;87.50
15184;DHT22;7693;49.266;7.104;2023-06-10T09:40:05;26.10;85.80
15184;DHT22;7693;49.266;7.104;2023-06-10T09:42:35;26.20;86.10
15184;DHT22;7693;49.266;7.104;2023-06-10T09:45:05;26.30;86.00
15184;DHT22;7693;49.266;7.104;2023-06-10T09:47:31;26.50;86.50
15184;DHT22;7693;49.266;7.104;2023-06-10T09:49:57;26.50;85.00
15184;DHT22;7693;49.266;7.104;2023-06-10T09:52:27;26.40;84.10
15184;DHT22;7693;49.266;7.104;2023-06-10T09:54:54;26.20;82.70
15184;DHT22;7693;49.266;7.104;2023-06-10T09:57:23;26.20;84.00
15184;DHT22;7693;49.266;7.104;2023-06-10T09:59:52;26.40;84.10
15184;DHT22;7693;49.266;7.104;2023-06-10T10:02:19;26.50;84.00
15184;DHT22;7693;49.266;7.104;2023-06-10T10:04:45;26.50;82.50
15184;DHT22;7693;49.266;7.104;2023-06-10T10:07:11;26.50;82.40
15184;DHT22;7693;49.266;7.104;2023-06-10T10:09:41;26.60;82.70
15184;DHT22;7693;49.266;7.104;2023-06-10T10:12:12;26.70;81.80
15184;DHT22;7693;49.266;7.104;2023-06-10T10:14:39;26.70;81.60
15184;DHT22;7693;49.266;7.104;2023-06-10T10:17:09;26.70;81.80
15184;DHT22;7693;49.266;7.104;2023-06-10T13:26:11;29.40;67.80
15184;DHT22;7693;49.266;7.104;2023-06-10T13:28:36;29.20;66.70
15184;DHT22;7693;49.266;7.104;2023-06-10T13:31:02;29.00;66.40
15184;DHT22;7693;49.266;7.104;2023-06-10T13:33:28;28.80;67.40
15184;DHT22;7693;49.266;7.104;2023-06-10T13:35:53;28.90;68.10
15184;DHT22;7693;49.266;7.104;2023-06-10T13:38:19;29.00;67.80
15184;DHT22;7693;49.266;7.104;2023-06-10T13:40:44;29.10;68.40
15184;DHT22;7693;49.266;7.104;2023-06-10T13:43:10;29.20;67.00
15184;DHT22;7693;49.266;7.104;2023-06-10T13:45:36;29.10;67.10
15184;DHT22;7693;49.266;7.104;2023-06-10T13:48:02;29.10;66.60
15184;DHT22;7693;49.266;7.104;2023-06-10T13:50:29;28.80;66.50
15184;DHT22;7693;49.266;7.104;2023-06-10T13:52:55;28.70;67.10
15184;DHT22;7693;49.266;7.104;2023-06-10T13:55:20;28.80;67.70
15184;DHT22;7693;49.266;7.104;2023-06-10T13:57:46;29.00;67.80
15184;DHT22;7693;49.266;7.104;2023-06-10T14:00:12;29.10;67.20
15184;DHT22;7693;49.266;7.104;2023-06-10T14:02:38;29.10;66.60
15184;DHT22;7693;49.266;7.104;2023-06-10T14:05:04;29.10;66.60
15184;DHT22;7693;49.266;7.104;2023-06-10T14:07:30;29.10;66.30
15184;DHT22;7693;49.266;7.104;2023-06-10T14:09:56;29.10;66.30
15184;DHT22;7693;49.266;7.104;2023-06-10T14:12:21;29.20;66.80
15184;DHT22;7693;49.266;7.104;2023-06-10T14:14:47;29.30;66.90
15184;DHT22;7693;49.266;7.104;2023-06-10T14:17:13;29.40;66.50
15184;DHT22;7693;49.266;7.104;2023-06-10T14:19:38;29.60;67.00
15184;DHT22;7693;49.266;7.104;2023-06-10T14:22:05;29.70;66.20
15184;DHT22;7693;49.266;7.104;2023-06-10T14:24:35;29.70;65.20
15184;DHT22;7693;49.266;7.104;2023-06-10T14:27:04;29.40;65.00
15184;DHT22;7693;49.266;7.104;2023-06-10T14:29:30;29.10;64.60
15184;DHT22;7693;49.266;7.104;2023-06-10T14:31:57;28.90;64.70
15184;DHT22;7693;49.266;7.104;2023-06-10T14:34:22;28.70;64.80
15184;DHT22;7693;49.266;7.104;2023-06-10T14:36:54;28.50;64.60
15184;DHT22;7693;49.266;7.104;2023-06-10T14:39:19;28.50;66.00
15184;DHT22;7693;49.266;7.104;2023-06-10T14:41:45;28.80;66.20
15184;DHT22;7693;49.266;7.104;2023-06-10T14:44:10;29.00;66.00
15184;DHT22;7693;49.266;7.104;2023-06-10T14:46:36;29.10;66.30
15184;DHT22;7693;49.266;7.104;2023-06-10T14:49:01;29.30;65.60
15184;DHT22;7693;49.266;7.104;2023-06-10T14:51:28;29.30;65.30
15184;DHT22;7693;49.266;7.104;2023-06-10T14:53:53;29.20;64.70
15184;DHT22;7693;49.266;7.104;2023-06-10T14:56:19;29.20;65.30
15184;DHT22;7693;49.266;7.104;2023-06-10T14:58:44;29.10;64.90
15184;DHT22;7693;49.266;7.104;2023-06-10T15:01:10;29.10;64.90
15184;DHT22;7693;49.266;7.104;2023-06-10T15:03:35;29.00;65.20
15184;DHT22;7693;49.266;7.104;2023-06-10T15:06:01;29.00;65.10
15184;DHT22;7693;49.266;7.104;2023-06-10T15:08:26;29.00;64.80
15184;DHT22;7693;49.266;7.104;2023-06-10T15:10:53;29.00;64.50
15184;DHT22;7693;49.266;7.104;2023-06-10T15:13:19;29.00;65.10
15184;DHT22;7693;49.266;7.104;2023-06-10T15:15:45;29.00;63.90
15184;DHT22;7693;49.266;7.104;2023-06-10T15:18:10;28.80;64.50
15184;DHT22;7693;49.266;7.104;2023-06-10T15:20:36;28.70;63.70
15184;DHT22;7693;49.266;7.104;2023-06-10T15:23:02;28.50;63.00
15184;DHT22;7693;49.266;7.104;2023-06-10T15:25:27;28.40;63.70
15184;DHT22;7693;49.266;7.104;2023-06-10T15:27:53;28.40;63.70
15184;DHT22;7693;49.266;7.104;2023-06-10T15:30:18;28.40;63.70
15184;DHT22;7693;49.266;7.104;2023-06-10T15:32:44;28.40;63.60
15184;DHT22;7693;49.266;7.104;2023-06-10T15:35:10;28.40;64.30
15184;DHT22;7693;49.266;7.104;2023-06-10T15:37:35;28.50;63.00
15184;DHT22;7693;49.266;7.104;2023-06-10T15:40:01;28.40;62.90
15184;DHT22;7693;49.266;7.104;2023-06-10T15:42:27;28.30;63.10
15184;DHT22;7693;49.266;7.104;2023-06-10T15:44:52;28.30;63.00
15184;DHT22;7693;49.266;7.104;2023-06-10T15:47:19;28.30;63.40
15184;DHT22;7693;49.266;7.104;2023-06-10T15:49:45;28.40;63.40
15184;DHT22;7693;49.266;7.104;2023-06-10T15:52:11;28.40;63.20
15184;DHT22;7693;49.266;7.104;2023-06-10T15:54:37;28.40;63.20
15184;DHT22;7693;49.266;7.104;2023-06-10T15:57:02;28.50;63.00
15184;DHT22;7693;49.266;7.104;2023-06-10T15:59:30;28.50;63.20
15184;DHT22;7693;49.266;7.104;2023-06-10T16:01:55;28.60;63.70
15184;DHT22;7693;49.266;7.104;2023-06-10T16:04:21;28.60;63.40
15184;DHT22;7693;49.266;7.104;2023-06-10T16:06:46;28.70;63.70
15184;DHT22;7693;49.266;7.104;2023-06-10T16:09:14;28.80;63.60
15184;DHT22;7693;49.266;7.104;2023-06-10T16:11:40;28.70;63.10
15184;DHT22;7693;49.266;7.104;2023-06-10T16:14:05;28.80;63.30
15184;DHT22;7693;49.266;7.104;2023-06-10T16:16:31;28.80;63.20
15184;DHT22;7693;49.266;7.104;2023-06-10T16:18:57;28.70;63.20
15184;DHT22;7693;49.266;7.104;2023-06-10T16:21:22;28.70;63.00
15184;DHT22;7693;49.266;7.104;2023-06-10T16:23:48;28.60;62.70
15184;DHT22;7693;49.266;7.104;2023-06-10T16:26:13;28.60;62.70
15184;DHT22;7693;49.266;7.104;2023-06-10T16:28:39;28.50;62.50
15184;DHT22;7693;49.266;7.104;2023-06-10T16:31:04;28.50;62.80
15184;DHT22;7693;49.266;7.104;2023-06-10T16:33:30;28.50;62.50
15184;DHT22;7693;49.266;7.104;2023-06-10T16:35:55;28.40;62.50
15184;DHT22;7693;49.266;7.104;2023-06-10T16:38:21;28.40;62.60
15184;DHT22;7693;49.266;7.104;2023-06-10T16:40:47;28.40;62.40
15184;DHT22;7693;49.266;7.104;2023-06-10T16:43:13;28.30;62.60
15184;DHT22;7693;49.266;7.104;2023-06-10T16:45:38;28.30;62.40
15184;DHT22;7693;49.266;7.104;2023-06-10T16:48:04;28.30;62.50
15184;DHT22;7693;49.266;7.104;2023-06-10T16:50:31;28.20;62.40
15184;DHT22;7693;49.266;7.104;2023-06-10T16:52:57;28.20;62.50
15184;DHT22;7693;49.266;7.104;2023-06-10T16:55:22;28.20;62.60
15184;DHT22;7693;49.266;7.104;2023-06-10T16:57:48;28.20;62.70
15184;DHT22;7693;49.266;7.104;2023-06-10T17:00:14;28.20;62.70
15184;DHT22;7693;49.266;7.104;2023-06-10T17:02:40;28.20;62.50
15184;DHT22;7693;49.266;7.104;2023-06-10T17:05:06;28.20;62.40
15184;DHT22;7693;49.266;7.104;2023-06-10T17:07:31;28.20;62.20
15184;DHT22;7693;49.266;7.104;2023-06-10T17:09:57;28.10;62.60
15184;DHT22;7693;49.266;7.104;2023-06-10T17:12:23;28.10;62.70
15184;DHT22;7693;49.266;7.104;2023-06-10T17:14:48;28.10;62.50
15184;DHT22;7693;49.266;7.104;2023-06-10T17:17:14;28.10;62.50
15184;DHT22;7693;49.266;7.104;2023-06-10T17:19:39;28.00;62.00
15184;DHT22;7693;49.266;7.104;2023-06-10T17:22:05;28.00;62.10
15184;DHT22;7693;49.266;7.104;2023-06-10T17:24:31;28.00;62.10
15184;DHT22;7693;49.266;7.104;2023-06-10T17:26:56;27.90;62.10
15184;DHT22;7693;49.266;7.104;2023-06-10T17:29:22;27.90;62.10
15184;DHT22;7693;49.266;7.104;2023-06-10T17:31:48;27.90;62.00
15184;DHT22;7693;49.266;7.104;2023-06-10T17:34:13;27.90;61.90
15184;DHT22;7693;49.266;7.104;2023-06-10T17:36:39;27.90;62.10
15184;DHT22;7693;49.266;7.104;2023-06-10T17:39:04;27.90;62.50
15184;DHT22;7693;49.266;7.104;2023-06-10T17:41:30;28.00;62.90
15184;DHT22;7693;49.266;7.104;2023-06-10T17:43:56;28.10;62.90
15184;DHT22;7693;49.266;7.104;2023-06-10T17:46:21;28.10;62.20
15184;DHT22;7693;49.266;7.104;2023-06-10T17:48:47;28.10;61.50
15184;DHT22;7693;49.266;7.104;2023-06-10T17:51:15;28.00;61.40
15184;DHT22;7693;49.266;7.104;2023-06-10T17:53:41;27.90;61.60
15184;DHT22;7693;49.266;7.104;2023-06-10T17:56:06;27.80;61.70
15184;DHT22;7693;49.266;7.104;2023-06-10T17:58:32;27.70;61.90
15184;DHT22;7693;49.266;7.104;2023-06-10T18:00:58;27.70;61.90
15184;DHT22;7693;49.266;7.104;2023-06-10T18:03:24;27.60;62.00
15184;DHT22;7693;49.266;7.104;2023-06-10T18:05:55;27.50;62.20
15184;DHT22;7693;49.266;7.104;2023-06-10T18:08:21;27.50;62.10
15184;DHT22;7693;49.266;7.104;2023-06-10T18:10:48;27.50;62.20
15184;DHT22;7693;49.266;7.104;2023-06-10T18:13:13;27.50;62.30
15184;DHT22;7693;49.266;7.104;2023-06-10T18:15:39;27.40;62.30
15184;DHT22;7693;49.266;7.104;2023-06-10T18:18:05;27.40;62.40
15184;DHT22;7693;49.266;7.104;2023-06-10T18:20:30;27.30;62.40
15184;DHT22;7693;49.266;7.104;2023-06-10T18:22:56;27.30;62.50
15184;DHT22;7693;49.266;7.104;2023-06-10T18:25:21;27.30;62.60
15184;DHT22;7693;49.266;7.104;2023-06-10T18:27:47;27.20;62.50
15184;DHT22;7693;49.266;7.104;2023-06-10T18:30:13;27.10;62.30
15184;DHT22;7693;49.266;7.104;2023-06-10T18:32:39;27.10;62.30
15184;DHT22;7693;49.266;7.104;2023-06-10T18:35:05;27.10;62.40
15184;DHT22;7693;49.266;7.104;2023-06-10T18:37:30;27.00;62.40
15184;DHT22;7693;49.266;7.104;2023-06-10T18:39:56;27.00;62.50
15184;DHT22;7693;49.266;7.104;2023-06-10T18:42:21;26.90;62.30
15184;DHT22;7693;49.266;7.104;2023-06-10T18:44:47;26.90;62.50
15184;DHT22;7693;49.266;7.104;2023-06-10T18:47:12;26.80;62.40
15184;DHT22;7693;49.266;7.104;2023-06-10T18:49:38;26.80;62.60
15184;DHT22;7693;49.266;7.104;2023-06-10T18:52:05;26.70;62.70
15184;DHT22;7693;49.266;7.104;2023-06-10T18:54:31;26.70;63.00
15184;DHT22;7693;49.266;7.104;2023-06-10T18:56:58;26.60;63.10
15184;DHT22;7693;49.266;7.104;2023-06-10T18:59:23;26.50;63.40
15184;DHT22;7693;49.266;7.104;2023-06-10T19:01:49;26.50;63.80
15184;DHT22;7693;49.266;7.104;2023-06-10T19:04:15;26.40;64.00
15184;DHT22;7693;49.266;7.104;2023-06-10T19:06:41;26.30;64.10
15184;DHT22;7693;49.266;7.104;2023-06-10T19:09:06;26.20;64.30
15184;DHT22;7693;49.266;7.104;2023-06-10T19:11:32;26.10;64.30
15184;DHT22;7693;49.266;7.104;2023-06-10T19:13:58;26.00;64.40
15184;DHT22;7693;49.266;7.104;2023-06-10T19:16:24;25.80;64.40
15184;DHT22;7693;49.266;7.104;2023-06-10T19:18:50;25.80;64.50
15184;DHT22;7693;49.266;7.104;2023-06-10T19:21:17;25.70;64.60
15184;DHT22;7693;49.266;7.104;2023-06-10T19:23:42;25.50;64.60
15184;DHT22;7693;49.266;7.104;2023-06-10T19:26:08;25.40;64.70
15184;DHT22;7693;49.266;7.104;2023-06-10T19:28:34;25.30;64.70
15184;DHT22;7693;49.266;7.104;2023-06-10T19:31:00;25.20;64.90
15184;DHT22;7693;49.266;7.104;2023-06-10T19:33:25;25.10;65.00
15184;DHT22;7693;49.266;7.104;2023-06-10T19:35:51;25.00;65.30
15184;DHT22;7693;49.266;7.104;2023-06-10T19:38:18;24.90;65.30
15184;DHT22;7693;49.266;7.104;2023-06-10T19:40:43;24.80;65.50
15184;DHT22;7693;49.266;7.104;2023-06-10T19:43:09;24.70;65.60
15184;DHT22;7693;49.266;7.104;2023-06-10T19:45:35;24.60;65.90
15184;DHT22;7693;49.266;7.104;2023-06-10T19:48:00;24.50;66.00
15184;DHT22;7693;49.266;7.104;2023-06-10T19:50:26;24.40;66.20
15184;DHT22;7693;49.266;7.104;2023-06-10T19:52:51;24.30;66.30
15184;DHT22;7693;49.266;7.104;2023-06-10T19:55:17;24.20;66.50
15184;DHT22;7693;49.266;7.104;2023-06-10T19:57:42;24.10;66.80
15184;DHT22;7693;49.266;7.104;2023-06-10T20:00:08;24.00;67.70
15184;DHT22;7693;49.266;7.104;2023-06-10T20:02:34;23.90;67.00
15184;DHT22;7693;49.266;7.104;2023-06-10T20:05:00;23.90;67.40
15184;DHT22;7693;49.266;7.104;2023-06-10T20:07:26;23.80;67.50
15184;DHT22;7693;49.266;7.104;2023-06-10T20:09:51;23.70;67.60
15184;DHT22;7693;49.266;7.104;2023-06-10T20:12:17;23.70;67.80
15184;DHT22;7693;49.266;7.104;2023-06-10T20:14:42;23.60;67.90
15184;DHT22;7693;49.266;7.104;2023-06-10T20:17:08;23.50;68.00
15184;DHT22;7693;49.266;7.104;2023-06-10T20:19:34;23.50;68.20
15184;DHT22;7693;49.266;7.104;2023-06-10T20:21:59;23.40;68.40
15184;DHT22;7693;49.266;7.104;2023-06-10T20:24:32;23.30;68.40
15184;DHT22;7693;49.266;7.104;2023-06-10T20:26:57;23.30;68.70
15184;DHT22;7693;49.266;7.104;2023-06-10T20:29:24;23.20;68.90
15184;DHT22;7693;49.266;7.104;2023-06-10T20:31:52;23.20;69.10
15184;DHT22;7693;49.266;7.104;2023-06-10T20:34:19;23.10;69.20
15184;DHT22;7693;49.266;7.104;2023-06-10T20:36:44;23.10;69.70
15184;DHT22;7693;49.266;7.104;2023-06-10T20:39:11;23.00;69.60
15184;DHT22;7693;49.266;7.104;2023-06-10T20:41:37;23.00;69.90
15184;DHT22;7693;49.266;7.104;2023-06-10T20:44:02;22.90;69.90
15184;DHT22;7693;49.266;7.104;2023-06-10T20:46:28;22.90;70.10
15184;DHT22;7693;49.266;7.104;2023-06-10T20:48:53;22.90;70.10
15184;DHT22;7693;49.266;7.104;2023-06-10T20:51:19;22.80;70.20
15184;DHT22;7693;49.266;7.104;2023-06-10T20:53:45;22.70;70.40
15184;DHT22;7693;49.266;7.104;2023-06-10T20:56:11;22.70;70.60
15184;DHT22;7693;49.266;7.104;2023-06-10T20:58:36;22.60;70.70
15184;DHT22;7693;49.266;7.104;2023-06-10T21:01:03;22.60;71.00
15184;DHT22;7693;49.266;7.104;2023-06-10T21:03:29;22.60;71.10
15184;DHT22;7693;49.266;7.104;2023-06-10T21:05:55;22.50;71.50
15184;DHT22;7693;49.266;7.104;2023-06-10T21:08:20;22.50;71.50
15184;DHT22;7693;49.266;7.104;2023-06-10T21:10:46;22.40;71.60
15184;DHT22;7693;49.266;7.104;2023-06-10T21:13:11;22.40;71.90
15184;DHT22;7693;49.266;7.104;2023-06-10T21:15:37;22.40;72.90
15184;DHT22;7693;49.266;7.104;2023-06-10T21:18:03;22.30;72.10
15184;DHT22;7693;49.266;7.104;2023-06-10T21:20:28;22.20;71.90
15184;DHT22;7693;49.266;7.104;2023-06-10T21:22:54;22.20;72.40
15184;DHT22;7693;49.266;7.104;2023-06-10T21:25:19;22.20;72.50
15184;DHT22;7693;49.266;7.104;2023-06-10T21:27:45;22.20;72.80
15184;DHT22;7693;49.266;7.104;2023-06-10T21:30:11;22.10;72.80
15184;DHT22;7693;49.266;7.104;2023-06-10T21:32:36;22.10;73.10
15184;DHT22;7693;49.266;7.104;2023-06-10T21:35:02;22.00;73.30
15184;DHT22;7693;49.266;7.104;2023-06-10T21:37:28;22.00;73.40
15184;DHT22;7693;49.266;7.104;2023-06-10T21:39:53;21.90;73.50
15184;DHT22;7693;49.266;7.104;2023-06-10T21:42:19;21.90;73.70
15184;DHT22;7693;49.266;7.104;2023-06-10T21:44:45;21.80;73.90
15184;DHT22;7693;49.266;7.104;2023-06-10T21:47:10;21.70;74.20
15184;DHT22;7693;49.266;7.104;2023-06-10T21:49:36;21.70;74.30
15184;DHT22;7693;49.266;7.104;2023-06-10T21:52:02;21.70;74.80
15184;DHT22;7693;49.266;7.104;2023-06-10T21:54:27;21.70;74.80
15184;DHT22;7693;49.266;7.104;2023-06-10T21:56:53;21.70;75.00
15184;DHT22;7693;49.266;7.104;2023-06-10T21:59:19;21.80;75.00
15184;DHT22;7693;49.266;7.104;2023-06-10T22:01:47;21.80;75.30
